Time;durP1;ratioP1;P1;durP2;ratioP2;P2;SDS_P1;SDS_P2;PMS_P1;PMS_P2;Temp;Humidity;BMP_temperature;BMP_pressure;BME280_temperature;BME280_humidity;BME280_pressure;Samples;Min_cycle;Max_cycle;Signal;HPM_P1;HPM_P2
2023/06/24 00:00:06;;;;;;;6.50;5.70;;;16.30;99.90;;;;;;5156269;27;20512;-64
2023/06/24 00:02:35;;;;;;;8.63;5.35;;;16.30;99.90;;;;;;5128089;27;20031;-64
2023/06/24 00:05:03;;;;;;;6.35;5.50;;;16.30;99.90;;;;;;5118899;27;20043;-64
2023/06/24 00:07:29;;;;;;;8.80;5.60;;;16.20;99.90;;;;;;5128478;27;20049;-64
2023/06/24 00:09:55;;;;;;;5.88;5.28;;;16.20;99.90;;;;;;5124284;27;20035;-64
2023/06/24 00:12:21;;;;;;;6.25;5.65;;;16.20;99.90;;;;;;5116516;27;20525;-64
2023/06/24 00:14:47;;;;;;;6.30;5.45;;;16.20;99.90;;;;;;5116445;27;20208;-64
2023/06/24 00:17:16;;;;;;;7.60;6.10;;;16.10;99.90;;;;;;5121770;27;20123;-64
2023/06/24 00:19:43;;;;;;;6.75;6.05;;;16.10;99.90;;;;;;5122109;27;20055;-65
2023/06/24 00:22:09;;;;;;;6.03;5.40;;;16.10;99.90;;;;;;5116610;27;20140;-64
2023/06/24 00:24:35;;;;;;;5.72;5.15;;;16.00;99.90;;;;;;5145349;27;20120;-65
2023/06/24 00:27:00;;;;;;;6.07;5.40;;;16.00;99.90;;;;;;5116455;27;20066;-64
2023/06/24 00:29:26;;;;;;;5.40;4.85;;;16.00;99.90;;;;;;5139270;27;20031;-64
2023/06/24 00:31:51;;;;;;;5.22;4.72;;;15.90;99.90;;;;;;5124621;27;20035;-64
2023/06/24 00:34:19;;;;;;;10.15;5.38;;;15.90;99.90;;;;;;5122128;27;20033;-65
2023/06/24 00:36:46;;;;;;;5.65;4.95;;;15.90;99.90;;;;;;5119804;27;20068;-64
2023/06/24 00:39:12;;;;;;;5.63;5.13;;;15.80;99.90;;;;;;5126451;27;20043;-64
2023/06/24 00:41:38;;;;;;;6.07;5.35;;;15.80;99.90;;;;;;5126879;27;20054;-64
2023/06/24 00:44:04;;;;;;;5.78;5.28;;;15.80;99.90;;;;;;5134394;27;20054;-64
2023/06/24 00:46:33;;;;;;;7.05;5.78;;;15.70;99.90;;;;;;5098495;27;20043;-64
2023/06/24 00:48:59;;;;;;;6.63;5.93;;;15.70;99.90;;;;;;5118612;27;20062;-64
2023/06/24 00:51:26;;;;;;;6.95;6.15;;;15.70;99.90;;;;;;5118914;27;20047;-64
2023/06/24 00:53:53;;;;;;;7.18;6.38;;;15.70;99.90;;;;;;5116641;27;20038;-64
2023/06/24 00:56:21;;;;;;;7.18;6.47;;;15.60;99.90;;;;;;5148801;27;20110;-64
2023/06/24 00:58:47;;;;;;;6.57;5.97;;;15.60;99.90;;;;;;5135668;27;20113;-64
2023/06/24 01:01:14;;;;;;;6.32;5.68;;;15.60;99.90;;;;;;5141555;27;20031;-64
2023/06/24 01:03:40;;;;;;;7.13;6.25;;;15.50;99.90;;;;;;5115487;27;20085;-64
2023/06/24 01:06:07;;;;;;;6.75;5.90;;;15.50;99.90;;;;;;5123671;27;20522;-64
2023/06/24 01:08:33;;;;;;;7.93;6.05;;;15.50;99.90;;;;;;5119261;27;20044;-64
2023/06/24 01:10:58;;;;;;;8.27;6.03;;;15.50;99.90;;;;;;5123773;27;20187;-64
2023/06/24 01:13:24;;;;;;;6.57;5.93;;;15.50;99.90;;;;;;5108879;27;20118;-64
2023/06/24 01:15:50;;;;;;;6.32;5.72;;;15.50;99.90;;;;;;5115108;27;20068;-64
2023/06/24 01:18:27;;;;;;;7.93;6.07;;;15.50;99.90;;;;;;5115276;27;20384;-64
2023/06/24 01:21:17;;;;;;;6.57;5.63;;;15.40;99.90;;;;;;5116146;27;20039;-64
2023/06/24 01:24:29;;;;;;;6.13;5.53;;;15.40;99.90;;;;;;5117491;27;20461;-65
2023/06/24 01:27:08;;;;;;;6.80;5.50;;;15.30;99.90;;;;;;5068712;28;20065;-64
2023/06/24 01:29:44;;;;;;;6.20;5.60;;;15.30;99.90;;;;;;5069196;28;20576;-64
2023/06/24 01:32:20;;;;;;;6.30;5.70;;;15.20;99.90;;;;;;5055059;28;20131;-63
2023/06/24 01:34:57;;;;;;;5.95;5.35;;;15.20;99.90;;;;;;5053345;28;20083;-64
2023/06/24 01:37:30;;;;;;;8.00;5.93;;;15.20;99.90;;;;;;5052661;28;20051;-64
2023/06/24 01:40:12;;;;;;;6.38;5.78;;;15.20;99.90;;;;;;5068849;28;20079;-64
2023/06/24 01:42:42;;;;;;;6.87;6.03;;;15.10;99.90;;;;;;5054827;28;20088;-64
2023/06/24 01:45:12;;;;;;;7.03;6.28;;;15.10;99.90;;;;;;5040787;28;20057;-64
2023/06/24 01:47:42;;;;;;;7.75;5.97;;;15.10;99.90;;;;;;5052919;28;20040;-64
2023/06/24 01:50:11;;;;;;;8.80;5.97;;;15.00;99.90;;;;;;5052741;28;20048;-64
2023/06/24 01:52:40;;;;;;;6.97;5.65;;;15.00;99.90;;;;;;5052147;28;20044;-64
2023/06/24 01:55:10;;;;;;;6.72;5.68;;;15.00;99.90;;;;;;5069732;28;20423;-64
2023/06/24 01:57:37;;;;;;;6.72;6.13;;;15.00;99.90;;;;;;5068481;28;20068;-64
2023/06/24 02:00:06;;;;;;;6.90;6.20;;;14.90;99.90;;;;;;5052008;28;20052;-64
2023/06/24 02:02:33;;;;;;;8.68;6.05;;;14.90;99.90;;;;;;5051004;28;20072;-64
2023/06/24 02:05:01;;;;;;;6.90;6.28;;;14.90;99.90;;;;;;5118140;27;20122;-65
2023/06/24 02:07:29;;;;;;;6.75;6.10;;;14.80;99.90;;;;;;5118665;27;20848;-64
2023/06/24 02:09:56;;;;;;;7.28;6.57;;;14.80;99.90;;;;;;5122849;27;20035;-64
2023/06/24 02:12:23;;;;;;;7.07;6.38;;;14.80;99.90;;;;;;5134012;27;20422;-64
2023/06/24 02:14:50;;;;;;;8.02;6.80;;;14.80;99.90;;;;;;5126316;27;20529;-64
2023/06/24 02:17:17;;;;;;;7.60;6.00;;;14.70;99.90;;;;;;5121132;27;20115;-64
2023/06/24 02:19:44;;;;;;;9.00;7.60;;;14.70;99.90;;;;;;5114273;27;20043;-64
2023/06/24 02:22:10;;;;;;;7.75;6.72;;;14.70;99.90;;;;;;5114006;27;20043;-64
2023/06/24 02:24:38;;;;;;;7.85;6.40;;;14.70;99.90;;;;;;5138467;27;20043;-64
2023/06/24 02:27:06;;;;;;;8.77;6.40;;;14.70;99.90;;;;;;5117784;27;20038;-64
2023/06/24 02:29:33;;;;;;;8.02;6.18;;;14.70;99.90;;;;;;5123219;27;20066;-64
2023/06/24 02:31:59;;;;;;;7.00;5.78;;;14.70;99.90;;;;;;5113953;27;20065;-64
2023/06/24 02:34:25;;;;;;;7.13;6.03;;;14.70;99.90;;;;;;5113664;27;20031;-64
2023/06/24 02:36:51;;;;;;;6.82;6.22;;;14.70;99.90;;;;;;5127739;27;20074;-64
2023/06/24 02:39:18;;;;;;;6.78;6.15;;;14.70;99.90;;;;;;5141280;27;20479;-64
2023/06/24 02:41:45;;;;;;;7.30;6.07;;;14.60;99.90;;;;;;5115472;27;20039;-64
2023/06/24 02:44:10;;;;;;;6.85;6.20;;;14.60;99.90;;;;;;5098045;27;20095;-64
2023/06/24 02:46:36;;;;;;;7.28;6.53;;;14.60;99.90;;;;;;5130415;27;20043;-64
2023/06/24 02:49:03;;;;;;;7.55;6.70;;;14.60;99.90;;;;;;5117072;27;20436;-64
2023/06/24 02:51:30;;;;;;;7.20;6.50;;;14.60;99.90;;;;;;5114402;27;20046;-64
2023/06/24 02:53:57;;;;;;;7.15;6.35;;;14.50;99.90;;;;;;5113785;27;20107;-64
2023/06/24 02:56:26;;;;;;;7.78;6.10;;;14.50;99.90;;;;;;5121681;27;20046;-64
2023/06/24 02:58:52;;;;;;;11.45;7.03;;;14.50;99.90;;;;;;5136679;27;20051;-64
2023/06/24 03:01:24;;;;;;;7.53;6.82;;;14.50;99.90;;;;;;5123049;27;20039;-64
2023/06/24 03:03:52;;;;;;;7.63;6.27;;;14.50;99.90;;;;;;5113430;27;20126;-64
2023/06/24 03:06:18;;;;;;;8.15;7.35;;;14.50;99.90;;;;;;5114644;27;20043;-63
2023/06/24 03:08:45;;;;;;;9.55;8.65;;;14.50;99.90;;;;;;5133708;27;20607;-65
2023/06/24 03:11:13;;;;;;;11.48;10.13;;;14.40;99.90;;;;;;5132403;27;20084;-64
2023/06/24 03:13:39;;;;;;;11.82;9.73;;;14.40;99.90;;;;;;5133146;27;20055;-63
2023/06/24 03:16:05;;;;;;;13.23;10.88;;;14.50;99.90;;;;;;5118782;27;20442;-64
2023/06/24 03:18:31;;;;;;;12.55;10.52;;;14.50;99.90;;;;;;5142445;27;20064;-64
2023/06/24 03:20:56;;;;;;;11.73;10.35;;;14.50;99.90;;;;;;5133802;27;20038;-64
2023/06/24 03:23:22;;;;;;;13.50;12.10;;;14.50;99.90;;;;;;5132826;27;20039;-64
2023/06/24 03:25:47;;;;;;;13.93;12.18;;;14.50;99.90;;;;;;5113340;28;20489;-64
2023/06/24 03:28:13;;;;;;;14.20;12.73;;;14.50;99.90;;;;;;5121487;28;20119;-64
2023/06/24 03:30:39;;;;;;;14.45;12.10;;;14.60;99.90;;;;;;5117125;28;20043;-64
2023/06/24 03:33:06;;;;;;;13.60;12.20;;;14.60;99.90;;;;;;5122593;28;20489;-64
2023/06/24 03:35:32;;;;;;;13.85;12.07;;;14.60;99.90;;;;;;5117548;27;20117;-64
2023/06/24 03:37:58;;;;;;;16.98;12.80;;;14.70;99.90;;;;;;5113482;27;20138;-64
2023/06/24 03:40:24;;;;;;;17.10;14.02;;;14.70;99.90;;;;;;5118622;28;20110;-64
2023/06/24 03:42:49;;;;;;;17.00;13.13;;;14.70;99.90;;;;;;5136255;27;20038;-64
2023/06/24 03:45:15;;;;;;;16.17;13.18;;;14.70;99.90;;;;;;5117484;28;20047;-64
2023/06/24 03:47:41;;;;;;;14.43;12.93;;;14.80;99.90;;;;;;5117647;27;20023;-64
2023/06/24 03:50:07;;;;;;;17.95;13.70;;;14.90;99.90;;;;;;5148728;27;20035;-64
2023/06/24 03:52:32;;;;;;;15.05;13.45;;;14.90;99.90;;;;;;5112995;28;20031;-64
2023/06/24 03:54:58;;;;;;;15.68;12.93;;;14.90;99.90;;;;;;5112642;27;20046;-63
2023/06/24 03:57:24;;;;;;;15.82;13.10;;;15.00;99.90;;;;;;5112792;27;20059;-64
2023/06/24 03:59:49;;;;;;;15.00;13.20;;;15.00;99.90;;;;;;5116884;27;20051;-63
2023/06/24 04:02:15;;;;;;;14.82;13.32;;;15.10;99.90;;;;;;5130142;27;20397;-64
2023/06/24 04:04:41;;;;;;;15.27;13.55;;;15.10;99.90;;;;;;5124871;28;20093;-64
2023/06/24 04:07:06;;;;;;;14.80;12.93;;;15.20;99.90;;;;;;5112487;27;20043;-64
2023/06/24 04:09:35;;;;;;;16.58;13.55;;;15.20;99.90;;;;;;5112964;28;20039;-64
2023/06/24 04:12:01;;;;;;;15.25;12.75;;;15.30;99.90;;;;;;5120598;27;20132;-65
2023/06/24 04:14:28;;;;;;;15.40;12.57;;;15.40;99.90;;;;;;5124329;27;20489;-64
2023/06/24 04:16:54;;;;;;;14.95;13.15;;;15.40;99.90;;;;;;5115825;27;20060;-64
2023/06/24 04:19:19;;;;;;;15.85;13.75;;;15.50;99.90;;;;;;5120283;27;20031;-64
2023/06/24 04:21:45;;;;;;;13.18;11.77;;;15.50;99.90;;;;;;5118961;27;20046;-64
2023/06/24 04:24:10;;;;;;;14.05;12.43;;;15.60;99.90;;;;;;5132901;27;20070;-64
2023/06/24 04:26:36;;;;;;;14.05;12.25;;;15.60;99.90;;;;;;5133544;27;20039;-64
2023/06/24 04:29:02;;;;;;;13.57;12.18;;;15.70;99.90;;;;;;5118318;27;20050;-64
2023/06/24 04:31:28;;;;;;;16.05;13.23;;;15.70;99.90;;;;;;5130627;27;20126;-64
2023/06/24 04:33:54;;;;;;;14.50;13.00;;;15.80;99.90;;;;;;5122613;27;20517;-64
2023/06/24 04:36:19;;;;;;;13.75;12.35;;;15.80;99.90;;;;;;5145515;27;20122;-64
2023/06/24 04:38:45;;;;;;;14.25;12.73;;;15.90;99.90;;;;;;5119194;27;20134;-64
2023/06/24 04:41:10;;;;;;;15.50;12.32;;;15.90;99.90;;;;;;5115482;27;20039;-64
2023/06/24 04:43:36;;;;;;;17.77;13.65;;;16.00;99.90;;;;;;5120468;27;20043;-64
2023/06/24 04:46:02;;;;;;;15.48;12.93;;;16.10;99.90;;;;;;5139288;27;20039;-63
2023/06/24 04:48:28;;;;;;;16.42;12.82;;;16.10;99.90;;;;;;5115604;27;20043;-64
2023/06/24 04:50:54;;;;;;;15.27;12.95;;;16.20;99.90;;;;;;5129696;27;20409;-64
2023/06/24 04:53:21;;;;;;;14.10;12.60;;;16.30;99.90;;;;;;5115771;27;20087;-64
2023/06/24 04:55:46;;;;;;;15.15;13.65;;;16.40;99.90;;;;;;5116042;27;20051;-64
2023/06/24 04:58:12;;;;;;;14.02;12.50;;;16.50;99.90;;;;;;5133540;27;20516;-64
2023/06/24 05:00:38;;;;;;;14.68;12.93;;;16.60;99.90;;;;;;5116490;27;20055;-64
2023/06/24 05:03:04;;;;;;;14.30;12.68;;;16.70;99.90;;;;;;5127167;27;20046;-64
2023/06/24 05:05:29;;;;;;;15.93;13.02;;;16.80;99.90;;;;;;5114946;27;20039;-64
2023/06/24 05:07:55;;;;;;;14.25;12.68;;;16.90;99.90;;;;;;5121783;27;20031;-64
2023/06/24 05:10:20;;;;;;;14.02;12.30;;;17.00;99.90;;;;;;5133610;27;20059;-64
2023/06/24 05:12:46;;;;;;;13.48;12.07;;;17.10;99.90;;;;;;5122520;27;20034;-64
2023/06/24 05:15:12;;;;;;;13.93;12.45;;;17.20;99.90;;;;;;5118346;27;20039;-64
2023/06/24 05:17:39;;;;;;;15.75;12.38;;;17.40;99.90;;;;;;5118164;27;20043;-65
2023/06/24 05:20:05;;;;;;;14.98;12.13;;;17.50;99.90;;;;;;5154546;27;20042;-64
2023/06/24 05:22:31;;;;;;;14.25;12.75;;;17.60;99.90;;;;;;5135613;27;20042;-64
2023/06/24 05:24:56;;;;;;;17.90;13.35;;;17.70;99.90;;;;;;5123305;27;20039;-64
2023/06/24 05:27:22;;;;;;;14.30;12.20;;;17.90;99.90;;;;;;5125867;27;20042;-64
2023/06/24 05:29:48;;;;;;;14.77;12.13;;;18.00;99.90;;;;;;5135645;27;20030;-64
2023/06/24 05:32:13;;;;;;;14.50;11.93;;;18.10;99.90;;;;;;5136007;27;20425;-64
2023/06/24 05:34:39;;;;;;;14.07;12.23;;;18.20;99.90;;;;;;5118047;27;20050;-64
2023/06/24 05:37:05;;;;;;;14.48;12.90;;;18.40;99.90;;;;;;5135189;27;20118;-65
2023/06/24 05:39:31;;;;;;;13.85;11.50;;;18.50;99.90;;;;;;5121122;27;20119;-64
2023/06/24 05:41:57;;;;;;;13.40;11.40;;;18.60;99.90;;;;;;5134659;27;20042;-64
2023/06/24 05:44:23;;;;;;;15.98;11.98;;;18.70;99.90;;;;;;5123417;27;20122;-64
2023/06/24 05:46:48;;;;;;;13.88;12.10;;;18.80;99.90;;;;;;5132977;27;20050;-63
2023/06/24 05:49:14;;;;;;;13.20;11.80;;;18.90;99.90;;;;;;5114936;27;20088;-63
2023/06/24 05:51:40;;;;;;;14.57;11.55;;;19.00;99.90;;;;;;5115667;27;20118;-64
2023/06/24 05:54:07;;;;;;;15.48;12.48;;;19.00;99.90;;;;;;5130470;27;20065;-63
2023/06/24 05:56:33;;;;;;;14.00;11.70;;;19.00;99.90;;;;;;5120925;27;20043;-64
2023/06/24 05:58:59;;;;;;;14.98;12.50;;;19.20;99.90;;;;;;5125083;27;20055;-64
2023/06/24 06:01:25;;;;;;;15.73;12.52;;;19.20;99.90;;;;;;5117283;27;20131;-64
2023/06/24 06:03:50;;;;;;;13.82;12.43;;;19.40;99.90;;;;;;5123063;27;20058;-63
2023/06/24 06:06:16;;;;;;;14.07;12.35;;;19.50;99.90;;;;;;5115371;27;20050;-64
2023/06/24 06:08:41;;;;;;;14.25;12.40;;;19.50;99.90;;;;;;5117885;27;20118;-64
2023/06/24 06:11:07;;;;;;;14.25;12.70;;;19.60;99.90;;;;;;5127526;27;20565;-64
2023/06/24 06:13:33;;;;;;;15.15;11.95;;;19.80;99.90;;;;;;5124474;27;20080;-64
2023/06/24 06:15:59;;;;;;;13.25;11.63;;;19.90;99.90;;;;;;5122771;27;20046;-63
2023/06/24 06:18:24;;;;;;;16.92;13.60;;;20.00;99.90;;;;;;5132562;27;20039;-63
2023/06/24 06:20:50;;;;;;;17.40;13.27;;;20.00;99.90;;;;;;5130941;27;20035;-64
2023/06/24 06:23:16;;;;;;;15.00;13.02;;;20.20;99.90;;;;;;5100200;28;20036;-64
2023/06/24 06:25:42;;;;;;;15.43;12.88;;;20.20;99.90;;;;;;5115864;27;20074;-65
2023/06/24 06:28:08;;;;;;;14.15;12.68;;;20.30;99.90;;;;;;5110765;27;20444;-64
2023/06/24 06:30:33;;;;;;;17.50;12.60;;;20.40;99.90;;;;;;5118067;27;20038;-65
2023/06/24 06:32:59;;;;;;;15.38;12.65;;;20.50;99.90;;;;;;5124145;27;20372;-64
2023/06/24 06:35:24;;;;;;;12.43;11.13;;;20.50;99.90;;;;;;5119789;27;20050;-64
2023/06/24 06:37:52;;;;;;;15.18;11.10;;;20.70;99.90;;;;;;5129980;27;20043;-65
2023/06/24 06:40:21;;;;;;;13.75;11.10;;;20.70;99.90;;;;;;5125846;27;20047;-64
2023/06/24 06:42:47;;;;;;;13.70;11.07;;;20.80;99.90;;;;;;5124440;27;20042;-65
2023/06/24 06:45:13;;;;;;;13.57;11.45;;;20.80;99.90;;;;;;5108546;27;20498;-65
2023/06/24 06:47:39;;;;;;;12.73;11.40;;;21.00;99.90;;;;;;5120807;27;20555;-64
2023/06/24 06:50:05;;;;;;;12.23;10.60;;;21.10;99.90;;;;;;5116931;27;20394;-65
2023/06/24 06:52:30;;;;;;;12.10;10.73;;;21.20;99.90;;;;;;5130009;27;20035;-64
2023/06/24 06:54:56;;;;;;;12.52;10.80;;;21.30;99.90;;;;;;5129469;27;20054;-65
2023/06/24 06:57:22;;;;;;;11.32;10.13;;;21.50;99.90;;;;;;5121106;27;20031;-64
2023/06/24 06:59:50;;;;;;;10.52;9.38;;;21.70;99.90;;;;;;5114590;27;20047;-63
2023/06/24 07:02:19;;;;;;;11.02;9.90;;;21.90;99.90;;;;;;5131512;27;20042;-64
2023/06/24 07:04:45;;;;;;;11.35;9.48;;;22.10;99.90;;;;;;5133034;27;20134;-64
2023/06/24 07:07:11;;;;;;;11.40;9.00;;;22.30;99.90;;;;;;5125341;27;20524;-64
2023/06/24 07:09:37;;;;;;;10.48;8.80;;;22.50;99.90;;;;;;5132753;27;20051;-64
2023/06/24 07:12:03;;;;;;;10.52;8.70;;;22.60;99.90;;;;;;5133048;27;20041;-65
2023/06/24 07:14:29;;;;;;;11.63;8.18;;;22.50;99.90;;;;;;5121109;27;20455;-64
2023/06/24 07:16:54;;;;;;;14.15;8.90;;;22.30;99.90;;;;;;5119550;27;20035;-64
2023/06/24 07:19:20;;;;;;;10.50;9.25;;;22.10;99.90;;;;;;5121919;27;20035;-64
2023/06/24 07:21:46;;;;;;;10.60;8.80;;;22.00;99.90;;;;;;5133328;27;20066;-65
2023/06/24 07:24:11;;;;;;;11.02;9.05;;;22.10;99.90;;;;;;5133239;27;20034;-64
2023/06/24 07:26:37;;;;;;;11.90;9.32;;;22.40;99.90;;;;;;5133050;27;20038;-65
2023/06/24 07:29:06;;;;;;;11.60;9.43;;;22.50;99.90;;;;;;5114411;27;20548;-64
2023/06/24 07:31:31;;;;;;;8.90;7.95;;;22.70;99.90;;;;;;5131948;27;20083;-64
2023/06/24 07:33:57;;;;;;;9.35;7.60;;;22.90;99.90;;;;;;5150873;27;20043;-65
2023/06/24 07:36:23;;;;;;;8.75;6.78;;;23.00;99.90;;;;;;5114162;27;20402;-65
2023/06/24 07:38:48;;;;;;;7.85;6.30;;;23.30;99.90;;;;;;5115431;28;20035;-65
2023/06/24 07:41:14;;;;;;;8.50;6.85;;;23.50;99.90;;;;;;5131328;27;20967;-64
2023/06/24 07:43:39;;;;;;;9.48;6.75;;;23.70;99.90;;;;;;5124089;27;20484;-65
2023/06/24 07:46:05;;;;;;;9.48;6.55;;;23.90;99.90;;;;;;5141111;27;20035;-65
2023/06/24 07:48:31;;;;;;;9.45;6.38;;;24.10;99.20;;;;;;5117903;27;20072;-64
2023/06/24 07:50:57;;;;;;;9.00;6.22;;;24.10;98.30;;;;;;5126260;27;20035;-64
2023/06/24 07:53:23;;;;;;;6.95;6.05;;;23.90;98.60;;;;;;5134765;27;20112;-64
2023/06/24 07:55:48;;;;;;;10.68;6.70;;;23.70;98.40;;;;;;5116798;27;20062;-64
2023/06/24 07:58:14;;;;;;;8.35;6.55;;;23.40;98.30;;;;;;5118446;28;20131;-64
2023/06/24 08:00:39;;;;;;;7.97;6.55;;;23.30;98.50;;;;;;5121857;28;20045;-63
2023/06/24 08:03:05;;;;;;;29.83;7.50;;;23.30;98.70;;;;;;5116248;27;20069;-65
2023/06/24 08:05:31;;;;;;;7.93;6.40;;;23.30;99.30;;;;;;5114616;27;20392;-64
2023/06/24 08:07:56;;;;;;;5.97;4.60;;;23.30;99.20;;;;;;5133642;27;20039;-64
2023/06/24 08:10:22;;;;;;;7.82;3.97;;;23.40;98.00;;;;;;5124774;27;20037;-64
2023/06/24 08:12:47;;;;;;;6.95;3.15;;;23.30;96.60;;;;;;5112888;28;20048;-64
2023/06/24 08:15:13;;;;;;;5.18;3.13;;;23.40;97.00;;;;;;5123782;27;20050;-64
2023/06/24 08:17:39;;;;;;;3.75;3.17;;;23.50;96.30;;;;;;5134464;27;20100;-64
2023/06/24 08:20:05;;;;;;;4.93;2.65;;;23.60;96.40;;;;;;5131168;27;20096;-64
2023/06/24 08:22:30;;;;;;;4.40;2.40;;;23.80;94.70;;;;;;5130659;27;20131;-65
2023/06/24 08:24:56;;;;;;;4.25;2.90;;;23.90;94.30;;;;;;5126850;27;20118;-63
2023/06/24 08:27:22;;;;;;;3.30;2.38;;;24.10;93.10;;;;;;5119642;27;20050;-65
2023/06/24 08:29:48;;;;;;;5.10;2.40;;;24.20;92.70;;;;;;5117232;27;20046;-64
2023/06/24 08:32:13;;;;;;;2.83;2.38;;;24.50;93.50;;;;;;5112906;27;20035;-64
2023/06/24 08:34:39;;;;;;;2.88;2.30;;;24.60;91.50;;;;;;5112624;27;20443;-65
2023/06/24 08:37:05;;;;;;;3.33;2.42;;;24.60;90.40;;;;;;5125768;27;20493;-64
2023/06/24 08:39:30;;;;;;;5.60;2.38;;;24.60;90.20;;;;;;5131889;27;20041;-65
2023/06/24 08:41:56;;;;;;;3.58;2.30;;;24.80;90.70;;;;;;5094509;28;20083;-65
2023/06/24 08:44:22;;;;;;;3.38;2.40;;;24.80;90.10;;;;;;5128841;27;20118;-64
2023/06/24 08:46:48;;;;;;;3.83;2.30;;;24.80;87.60;;;;;;5129206;27;22002;-65
2023/06/24 08:49:23;;;;;;;5.07;2.78;;;24.70;89.20;;;;;;5132831;27;20039;-64
2023/06/24 08:52:08;;;;;;;4.05;2.38;;;24.80;89.90;;;;;;5124515;27;20410;-66
2023/06/24 08:54:39;;;;;;;2.75;2.03;;;24.80;86.10;;;;;;5112183;28;20043;-64
2023/06/24 08:57:06;;;;;;;2.08;1.83;;;24.90;86.20;;;;;;5117675;27;20040;-65
2023/06/24 08:59:33;;;;;;;7.32;2.30;;;25.00;86.60;;;;;;5117130;27;20050;-64
2023/06/24 09:01:59;;;;;;;3.38;2.05;;;25.20;86.40;;;;;;5112512;27;20082;-64
2023/06/24 09:04:24;;;;;;;3.92;2.08;;;25.30;85.20;;;;;;5128178;27;20071;-63
2023/06/24 09:06:50;;;;;;;2.47;1.80;;;25.40;83.80;;;;;;5132015;27;20039;-65
2023/06/24 09:09:23;;;;;;;2.80;1.70;;;25.80;86.70;;;;;;5115074;27;20080;-66
2023/06/24 09:11:59;;;;;;;2.47;1.85;;;26.10;85.80;;;;;;5133480;27;20043;-64
2023/06/24 09:14:26;;;;;;;3.85;1.92;;;26.40;84.70;;;;;;5119609;27;20032;-65
2023/06/24 09:17:03;;;;;;;2.30;2.10;;;26.60;86.40;;;;;;5111973;28;20061;-65
2023/06/24 09:19:29;;;;;;;2.88;1.77;;;26.80;86.20;;;;;;5112502;28;20043;-65
2023/06/24 09:22:17;;;;;;;4.07;2.53;;;27.00;84.50;;;;;;5113031;28;20397;-65
2023/06/24 09:24:46;;;;;;;3.58;2.60;;;26.90;80.80;;;;;;5116963;27;20036;-64
2023/06/24 09:27:15;;;;;;;4.38;2.75;;;27.00;82.90;;;;;;5111747;28;20040;-65
2023/06/24 09:29:42;;;;;;;3.30;2.72;;;26.90;82.50;;;;;;5113114;28;20145;-64
2023/06/24 09:32:08;;;;;;;4.35;3.30;;;26.90;81.90;;;;;;5111589;28;20043;-65
2023/06/24 09:34:35;;;;;;;3.28;2.60;;;26.70;82.20;;;;;;5119170;27;20518;-65
2023/06/24 09:37:01;;;;;;;5.28;3.30;;;26.90;83.00;;;;;;5112555;27;20479;-65
2023/06/24 09:39:30;;;;;;;6.00;3.92;;;27.00;84.70;;;;;;5111695;28;20119;-64
2023/06/24 09:41:56;;;;;;;6.80;3.67;;;27.10;83.70;;;;;;5121494;27;20148;-65
2023/06/24 09:44:22;;;;;;;9.95;4.10;;;27.10;84.80;;;;;;5132330;27;20486;-64
2023/06/24 09:46:48;;;;;;;4.70;3.63;;;27.20;84.90;;;;;;5114030;27;20044;-64
2023/06/24 09:49:14;;;;;;;5.25;4.38;;;27.20;84.20;;;;;;5111244;28;20386;-64
2023/06/24 09:51:44;;;;;;;5.15;4.00;;;27.20;84.50;;;;;;5112536;28;20522;-65
2023/06/24 09:54:11;;;;;;;8.38;4.97;;;27.40;86.10;;;;;;5110944;28;20039;-65
2023/06/24 09:56:39;;;;;;;6.07;4.75;;;27.40;84.60;;;;;;5123991;27;20389;-65
2023/06/24 09:59:06;;;;;;;8.65;4.57;;;27.40;84.50;;;;;;5131250;27;20446;-64
2023/06/24 10:01:43;;;;;;;5.57;4.10;;;27.50;85.10;;;;;;5131752;27;20095;-65
2023/06/24 10:04:14;;;;;;;7.05;4.40;;;27.60;84.70;;;;;;5131448;27;20490;-65
2023/06/24 10:06:40;;;;;;;8.00;4.60;;;27.80;86.20;;;;;;5125605;27;20486;-65
2023/06/24 10:09:06;;;;;;;7.32;4.25;;;27.70;84.60;;;;;;5110646;28;20092;-65
2023/06/24 10:11:32;;;;;;;6.72;4.70;;;28.00;85.30;;;;;;5111056;28;20040;-64
2023/06/24 10:13:58;;;;;;;7.13;4.30;;;28.00;84.70;;;;;;5112081;28;20035;-66
2023/06/24 10:16:23;;;;;;;6.95;4.13;;;28.00;85.40;;;;;;5111031;28;20170;-66
2023/06/24 10:18:49;;;;;;;7.72;4.50;;;28.00;85.40;;;;;;5130970;27;20104;-66
2023/06/24 10:21:16;;;;;;;8.13;4.97;;;28.20;86.40;;;;;;5129436;27;20038;-65
2023/06/24 10:23:42;;;;;;;6.18;4.85;;;28.20;85.30;;;;;;5110691;28;20126;-65
2023/06/24 10:26:29;;;;;;;6.38;4.80;;;28.20;85.00;;;;;;5109809;28;20054;-65
2023/06/24 10:29:07;;;;;;;7.28;4.50;;;28.40;87.00;;;;;;5110027;28;20457;-66
2023/06/24 10:31:44;;;;;;;5.13;3.72;;;28.30;82.50;;;;;;5114638;27;20122;-64
2023/06/24 10:34:22;;;;;;;4.82;4.43;;;28.40;85.20;;;;;;5110125;28;20062;-65
2023/06/24 10:37:13;;;;;;;4.85;4.18;;;28.40;81.50;;;;;;5110394;28;20090;-64
2023/06/24 10:39:52;;;;;;;7.00;5.07;;;28.70;84.10;;;;;;5110584;28;20049;-66
2023/06/24 10:42:26;;;;;;;5.20;4.40;;;28.70;83.30;;;;;;5121210;27;20115;-66
2023/06/24 10:44:54;;;;;;;4.82;4.00;;;28.90;84.90;;;;;;5130713;27;20172;-64
2023/06/24 10:47:21;;;;;;;5.05;4.05;;;28.80;83.80;;;;;;5116762;27;20047;-64
2023/06/24 10:49:47;;;;;;;4.72;3.92;;;28.80;83.00;;;;;;5130060;27;20460;-64
2023/06/24 10:52:13;;;;;;;4.28;3.83;;;28.70;82.40;;;;;;5129822;27;20180;-64
2023/06/24 10:54:40;;;;;;;6.38;4.25;;;28.70;83.00;;;;;;5130733;27;20043;-65
2023/06/24 10:57:07;;;;;;;5.65;3.75;;;28.70;81.50;;;;;;5130045;27;20055;-65
2023/06/24 10:59:57;;;;;;;5.30;3.47;;;29.30;91.80;;;;;;5150899;27;20125;-64
2023/06/24 11:02:26;;;;;;;8.32;3.78;;;28.90;81.10;;;;;;5128138;27;20058;-66
2023/06/24 11:04:54;;;;;;;6.90;3.88;;;28.90;81.50;;;;;;5112724;27;20051;-65
2023/06/24 11:07:21;;;;;;;5.45;4.15;;;29.10;82.20;;;;;;5112957;27;20050;-64
2023/06/24 11:09:52;;;;;;;6.47;3.60;;;29.00;80.90;;;;;;5113250;27;20042;-65
2023/06/24 11:12:19;;;;;;;7.13;4.13;;;28.90;80.20;;;;;;5115630;27;20050;-65
2023/06/24 11:14:45;;;;;;;4.47;3.25;;;29.00;81.80;;;;;;5124060;27;20095;-64
2023/06/24 11:17:11;;;;;;;5.68;4.25;;;29.00;82.20;;;;;;5126104;27;20042;-64
2023/06/24 11:19:39;;;;;;;7.43;3.97;;;28.90;80.20;;;;;;5133312;27;20117;-65
2023/06/24 11:22:06;;;;;;;4.53;3.83;;;28.80;80.30;;;;;;5152549;27;20109;-63
2023/06/24 11:24:32;;;;;;;6.63;3.45;;;28.70;80.80;;;;;;5133635;27;20128;-65
2023/06/24 11:26:57;;;;;;;4.43;3.65;;;28.30;80.30;;;;;;5133558;27;20465;-65
2023/06/24 11:29:24;;;;;;;5.88;3.83;;;28.30;80.30;;;;;;5133238;27;20101;-65
2023/06/24 11:31:50;;;;;;;4.90;3.60;;;28.30;80.60;;;;;;5122611;27;20039;-64
2023/06/24 11:34:16;;;;;;;4.13;3.25;;;28.20;80.80;;;;;;5133368;27;20038;-66
2023/06/24 11:36:42;;;;;;;3.95;3.30;;;28.20;80.80;;;;;;5134100;27;20050;-65
2023/06/24 11:39:08;;;;;;;5.75;3.70;;;28.20;80.10;;;;;;5137742;27;20146;-65
2023/06/24 11:41:33;;;;;;;7.47;3.45;;;28.20;79.20;;;;;;5137918;27;20039;-65
2023/06/24 11:43:59;;;;;;;5.35;3.47;;;28.30;79.90;;;;;;5137867;27;20070;-65
2023/06/24 11:46:26;;;;;;;4.00;3.60;;;28.30;80.90;;;;;;5137232;27;20047;-64
2023/06/24 11:48:52;;;;;;;5.78;3.25;;;28.40;81.60;;;;;;5137803;27;20039;-65
2023/06/24 11:51:18;;;;;;;3.78;3.30;;;28.50;80.20;;;;;;5137593;27;20035;-64
2023/06/24 11:53:45;;;;;;;7.10;4.50;;;28.50;80.10;;;;;;5137132;27;20042;-64
2023/06/24 11:56:12;;;;;;;5.68;4.72;;;28.50;80.10;;;;;;5156123;27;20038;-65
2023/06/24 11:58:38;;;;;;;5.03;3.60;;;28.40;80.30;;;;;;5155686;27;20042;-65
2023/06/24 12:01:06;;;;;;;5.55;3.25;;;28.10;79.90;;;;;;5137886;27;20408;-64
2023/06/24 12:03:33;;;;;;;5.13;3.72;;;27.90;80.10;;;;;;5136692;27;20050;-64
2023/06/24 12:05:59;;;;;;;4.10;3.70;;;27.60;80.90;;;;;;5137214;27;20038;-65
2023/06/24 12:08:25;;;;;;;5.25;3.75;;;27.50;81.50;;;;;;5136644;27;20054;-66
2023/06/24 12:10:51;;;;;;;5.20;4.15;;;27.40;82.00;;;;;;5137488;27;20094;-65
2023/06/24 12:13:17;;;;;;;5.25;4.15;;;27.30;82.30;;;;;;5155704;27;20113;-66
2023/06/24 12:15:43;;;;;;;4.45;3.65;;;27.20;81.50;;;;;;5125010;27;20557;-65
2023/06/24 12:18:09;;;;;;;8.52;3.63;;;27.10;82.80;;;;;;5116669;27;20122;-64
2023/06/24 12:20:36;;;;;;;5.30;4.15;;;27.10;83.30;;;;;;5134623;27;20118;-65
2023/06/24 12:23:03;;;;;;;5.28;4.10;;;26.90;83.30;;;;;;5134933;27;20110;-64
2023/06/24 12:25:29;;;;;;;8.27;5.20;;;26.90;84.50;;;;;;5141465;27;20068;-64
2023/06/24 12:27:55;;;;;;;6.70;4.30;;;26.70;84.80;;;;;;5136562;27;20026;-65
2023/06/24 12:30:21;;;;;;;6.00;4.18;;;26.80;85.50;;;;;;5136854;27;20034;-63
2023/06/24 12:32:49;;;;;;;3.97;3.28;;;26.90;86.90;;;;;;5155040;27;20038;-65
2023/06/24 12:35:15;;;;;;;5.28;3.50;;;27.00;85.40;;;;;;5136896;27;20034;-65
2023/06/24 12:37:41;;;;;;;5.05;3.70;;;27.10;85.00;;;;;;5122177;27;20388;-64
2023/06/24 12:40:07;;;;;;;4.55;3.63;;;27.30;84.00;;;;;;5136742;27;21038;-64